createdAt,value
2022-12-23T00:01:27.535Z,61.05
2022-12-23T00:03:59.001Z,61.24
2022-12-23T00:06:27.591Z,61.30
2022-12-23T00:08:58.627Z,61.36
2022-12-23T00:11:28.966Z,61.39
2022-12-23T00:14:21.021Z,61.46
2022-12-23T00:16:50.752Z,61.57
2022-12-23T00:19:18.906Z,61.46
2022-12-23T00:21:48.275Z,61.61
2022-12-23T00:24:15.952Z,61.76
2022-12-23T00:26:43.756Z,61.92
2022-12-23T00:29:11.757Z,61.72
2022-12-23T00:31:39.451Z,61.99
2022-12-23T00:34:07.582Z,61.81
2022-12-23T00:36:37.437Z,62.13
2022-12-23T00:39:23.745Z,61.91
2022-12-23T00:42:10.246Z,62.15
2022-12-23T00:44:38.007Z,62.08
2022-12-23T00:47:05.838Z,62.28
2022-12-23T00:49:42.979Z,62.16
2022-12-23T00:52:13.753Z,62.30
2022-12-23T00:54:41.953Z,62.52
2022-12-23T00:57:09.870Z,62.60
2022-12-23T00:59:37.616Z,62.62
2022-12-23T01:02:24.124Z,62.64
2022-12-23T01:05:10.562Z,62.86
2022-12-23T01:07:38.270Z,62.90
2022-12-23T01:10:07.033Z,62.78
2022-12-23T01:12:34.688Z,62.76
2022-12-23T01:15:02.381Z,62.91
2022-12-23T01:17:30.385Z,62.91
2022-12-23T01:19:58.217Z,63.05
2022-12-23T01:22:25.934Z,63.05
2022-12-23T01:24:53.605Z,63.23
2022-12-23T01:27:21.248Z,63.31
2022-12-23T01:29:48.902Z,63.32
2022-12-23T01:32:16.803Z,63.41
2022-12-23T01:34:44.643Z,63.34
2022-12-23T01:37:12.492Z,63.44
2022-12-23T01:39:40.137Z,63.48
2022-12-23T01:42:39.354Z,63.47
2022-12-23T01:45:27.858Z,63.58
2022-12-23T01:48:06.023Z,63.65
2022-12-23T01:50:38.208Z,63.70
2022-12-23T01:53:10.203Z,63.86
2022-12-23T01:56:15.335Z,63.66
2022-12-23T01:58:50.400Z,63.92
2022-12-23T02:01:36.791Z,63.92
2022-12-23T02:04:09.690Z,63.72
2022-12-23T02:06:59.438Z,63.82
2022-12-23T02:09:37.232Z,63.68
2022-12-23T02:12:27.164Z,63.71
2022-12-23T02:15:53.522Z,63.82
2022-12-23T02:18:47.933Z,64.14
2022-12-23T02:21:47.106Z,63.96
2022-12-23T02:24:45.461Z,63.94
2022-12-23T02:27:33.153Z,64.15
2022-12-23T02:30:28.964Z,64.03
2022-12-23T02:33:37.557Z,63.94
2022-12-23T02:36:17.618Z,64.15
2022-12-23T02:39:09.854Z,63.88
2022-12-23T02:41:51.280Z,64.03
2022-12-23T02:44:52.649Z,64.01
2022-12-23T02:47:25.121Z,64.20
2022-12-23T02:49:58.678Z,64.22
2022-12-23T02:52:32.452Z,64.27
2022-12-23T02:55:16.310Z,63.90
2022-12-23T02:57:48.841Z,63.88
2022-12-23T03:00:18.283Z,63.98
2022-12-23T03:02:46.550Z,63.95
2022-12-23T03:05:43.212Z,63.84
2022-12-23T03:08:35.573Z,63.97
2022-12-23T03:11:11.916Z,63.83
2022-12-23T03:14:14.484Z,63.72
2022-12-23T03:16:58.364Z,63.99
2022-12-23T03:19:46.379Z,63.76
2022-12-23T03:22:30.425Z,63.96
2022-12-23T03:25:24.315Z,63.98
2022-12-23T03:28:11.178Z,64.13
2022-12-23T03:30:43.128Z,64.31
2022-12-23T03:33:31.108Z,63.97
2022-12-23T03:36:13.038Z,63.95
2022-12-23T03:38:43.751Z,64.07
2022-12-23T03:41:20.049Z,63.78
2022-12-23T03:44:17.470Z,63.85
2022-12-23T03:47:17.355Z,63.92
2022-12-23T03:49:53.235Z,63.91
2022-12-23T03:52:30.653Z,63.91
2022-12-23T03:55:05.949Z,63.97
2022-12-23T03:58:14.555Z,63.76
2022-12-23T04:00:50.527Z,63.97
2022-12-23T04:03:28.952Z,63.98
2022-12-23T04:06:02.107Z,63.78
2022-12-23T04:08:36.347Z,63.85
2022-12-23T04:11:05.347Z,63.89
2022-12-23T04:13:33.334Z,63.82
2022-12-23T04:16:02.470Z,63.84
2022-12-23T04:18:30.287Z,63.72
2022-12-23T04:20:58.039Z,63.95
2022-12-23T04:23:25.719Z,63.91
2022-12-23T04:25:53.457Z,63.91
2022-12-23T04:28:21.221Z,63.78
2022-12-23T04:30:49.299Z,63.91
2022-12-23T04:33:16.961Z,63.94
2022-12-23T04:35:44.757Z,63.80
2022-12-23T04:38:14.946Z,63.76
2022-12-23T04:40:47.120Z,63.80
2022-12-23T04:43:15.346Z,63.87
2022-12-23T04:45:43.054Z,63.77
2022-12-23T04:48:10.692Z,63.85
2022-12-23T04:50:39.631Z,63.80
2022-12-23T04:53:07.398Z,63.86
2022-12-23T04:55:36.102Z,63.83
2022-12-23T04:58:03.895Z,63.83
2022-12-23T05:00:38.989Z,63.81
2022-12-23T05:03:07.551Z,63.82
2022-12-23T05:05:35.651Z,64.05
2022-12-23T05:08:06.644Z,63.86
2022-12-23T05:10:34.511Z,64.07
2022-12-23T05:13:02.166Z,64.07
2022-12-23T05:15:32.995Z,63.99
2022-12-23T05:18:00.928Z,64.18
2022-12-23T05:20:28.799Z,64.02
2022-12-23T05:22:56.425Z,63.94
2022-12-23T05:25:24.114Z,63.75
2022-12-23T05:27:51.817Z,63.79
2022-12-23T05:30:39.462Z,63.83
2022-12-23T05:33:07.588Z,63.79
2022-12-23T05:35:35.546Z,63.76
2022-12-23T05:38:03.982Z,63.89
2022-12-23T05:40:32.747Z,63.88
2022-12-23T05:43:01.406Z,63.63
2022-12-23T05:45:29.291Z,63.82
2022-12-23T05:47:56.959Z,63.36
2022-12-23T05:50:24.632Z,63.50
2022-12-23T05:52:52.372Z,63.57
2022-12-23T05:55:20.034Z,63.51
2022-12-23T05:57:47.725Z,63.32
2022-12-23T06:00:15.880Z,63.42
2022-12-23T06:02:48.453Z,63.35
2022-12-23T06:05:20.068Z,63.32
2022-12-23T06:07:47.795Z,63.31
2022-12-23T06:10:15.671Z,63.29
2022-12-23T06:12:43.513Z,63.19
2022-12-23T06:15:12.479Z,63.07
2022-12-23T06:17:40.766Z,63.21
2022-12-23T06:20:13.392Z,63.15
2022-12-23T06:22:45.891Z,63.22
2022-12-23T06:25:13.865Z,63.19
2022-12-23T06:27:41.723Z,63.17
2022-12-23T06:30:10.570Z,63.11
2022-12-23T06:32:39.048Z,63.13
2022-12-23T06:35:08.977Z,63.23
2022-12-23T06:37:36.635Z,63.14
2022-12-23T06:40:05.449Z,62.97
2022-12-23T06:42:33.099Z,62.96
2022-12-23T06:45:00.764Z,62.87
2022-12-23T06:47:28.490Z,62.78
2022-12-23T06:49:56.168Z,62.68
2022-12-23T06:52:23.975Z,62.69
2022-12-23T06:54:52.040Z,62.78
2022-12-23T06:57:19.730Z,62.81
2022-12-23T06:59:47.388Z,62.92
2022-12-23T07:02:15.204Z,62.91
2022-12-23T07:04:42.955Z,62.90
2022-12-23T07:07:10.873Z,62.90
2022-12-23T07:09:38.669Z,62.85
2022-12-23T07:12:06.691Z,62.93
2022-12-23T07:14:34.433Z,63.01
2022-12-23T07:17:02.598Z,62.81
2022-12-23T07:19:30.579Z,62.92
2022-12-23T07:21:58.288Z,63.07
2022-12-23T07:24:26.049Z,63.00
2022-12-23T07:26:55.841Z,63.08
2022-12-23T07:29:23.582Z,63.04
2022-12-23T07:31:51.322Z,63.10
2022-12-23T07:34:20.694Z,63.12
2022-12-23T07:36:48.365Z,63.17
2022-12-23T07:39:16.150Z,63.12
2022-12-23T07:41:43.914Z,63.17
2022-12-23T07:44:14.094Z,63.06
2022-12-23T07:46:41.836Z,63.10
2022-12-23T07:49:09.865Z,63.31
2022-12-23T07:51:37.846Z,63.21
2022-12-23T07:54:05.804Z,63.34
2022-12-23T07:56:33.780Z,63.22
2022-12-23T07:59:01.472Z,63.21
2022-12-23T08:01:29.310Z,63.38
2022-12-23T08:03:57.206Z,63.43
2022-12-23T08:06:24.943Z,63.44
2022-12-23T08:08:52.935Z,63.53
2022-12-23T08:11:20.825Z,63.53
2022-12-23T08:13:49.217Z,63.56
2022-12-23T08:16:16.960Z,63.50
2022-12-23T08:18:48.924Z,63.37
2022-12-23T08:21:19.938Z,63.47
2022-12-23T08:23:48.591Z,63.38
2022-12-23T08:26:21.101Z,63.38
2022-12-23T08:28:53.444Z,63.41
2022-12-23T08:31:31.907Z,63.24
2022-12-23T08:34:01.205Z,63.32
2022-12-23T08:36:34.174Z,63.35
2022-12-23T08:39:07.531Z,63.50
2022-12-23T08:41:44.394Z,63.32
2022-12-23T08:44:13.154Z,63.36
2022-12-23T08:46:42.001Z,63.33
2022-12-23T08:49:10.649Z,63.28
2022-12-23T08:51:39.213Z,63.32
2022-12-23T08:54:07.316Z,63.33
2022-12-23T08:56:40.883Z,63.12
2022-12-23T08:59:19.277Z,63.16
2022-12-23T09:01:48.667Z,63.20
2022-12-23T09:04:17.036Z,63.08
2022-12-23T09:06:45.615Z,63.26
2022-12-23T09:09:16.200Z,62.97
2022-12-23T09:11:44.185Z,62.94
2022-12-23T09:14:12.763Z,63.06
2022-12-23T09:16:40.692Z,63.01
2022-12-23T09:19:09.058Z,63.07
2022-12-23T09:21:37.329Z,63.05
2022-12-23T09:24:05.952Z,62.97
2022-12-23T09:26:33.699Z,62.88
2022-12-23T09:29:01.481Z,62.88
2022-12-23T09:31:36.190Z,62.84
2022-12-23T09:34:06.004Z,62.95
2022-12-23T09:36:34.043Z,62.71
2022-12-23T09:39:02.004Z,62.80
2022-12-23T09:42:05.314Z,62.54
2022-12-23T09:44:59.158Z,62.55
2022-12-23T09:47:29.574Z,62.72
2022-12-23T09:50:03.487Z,62.49
2022-12-23T09:52:54.223Z,62.27
2022-12-23T09:55:29.429Z,62.48
2022-12-23T09:58:06.477Z,62.37
2022-12-23T10:00:43.814Z,62.29
2022-12-23T10:03:26.130Z,62.19
2022-12-23T10:06:12.971Z,62.25
2022-12-23T10:08:48.832Z,62.09
2022-12-23T10:11:26.643Z,62.07
2022-12-23T10:14:19.088Z,61.81
2022-12-23T10:16:56.933Z,61.89
2022-12-23T10:19:41.955Z,61.86
2022-12-23T10:22:32.949Z,61.90
2022-12-23T10:25:05.715Z,62.05
2022-12-23T10:27:40.156Z,61.91
2022-12-23T10:33:28.691Z,61.89
2022-12-23T10:36:17.445Z,61.78
2022-12-23T10:39:03.508Z,61.96
2022-12-23T10:42:12.658Z,61.92
2022-12-23T10:44:59.826Z,62.02
2022-12-23T10:47:40.657Z,61.92
2022-12-23T10:50:46.552Z,61.97
2022-12-23T10:53:29.369Z,62.27
2022-12-23T10:55:59.157Z,62.19
2022-12-23T10:58:27.644Z,62.22
2022-12-23T11:01:08.467Z,62.05
2022-12-23T11:04:06.122Z,62.08
2022-12-23T11:06:40.230Z,62.22
2022-12-23T11:09:19.685Z,61.96
2022-12-23T11:11:59.973Z,62.10
2022-12-23T11:14:41.881Z,62.33
2022-12-23T11:17:25.352Z,62.20
2022-12-23T11:20:17.474Z,62.16
2022-12-23T11:23:04.683Z,62.29
2022-12-23T11:25:43.769Z,62.09
2022-12-23T11:28:11.760Z,62.24
2022-12-23T11:31:12.321Z,62.13
2022-12-23T11:34:00.173Z,62.01
2022-12-23T11:37:05.201Z,62.26
2022-12-23T11:39:38.568Z,62.31
2022-12-23T11:42:20.781Z,62.22
2022-12-23T11:44:53.737Z,62.31
2022-12-23T11:47:41.403Z,62.35
2022-12-23T11:50:40.503Z,62.49
2022-12-23T11:53:22.299Z,62.52
2022-12-23T11:56:16.700Z,62.54
2022-12-23T11:59:05.770Z,62.63
2022-12-23T12:01:35.758Z,62.88
2022-12-23T12:04:09.258Z,62.83
2022-12-23T12:06:49.665Z,62.81
2022-12-23T12:09:21.664Z,62.88
2022-12-23T12:12:20.391Z,62.77
2022-12-23T12:14:58.850Z,62.88
2022-12-23T12:17:41.077Z,62.81
2022-12-23T12:20:33.953Z,62.98
2022-12-23T12:23:18.627Z,63.01
2022-12-23T12:25:59.872Z,62.69
2022-12-23T12:29:07.427Z,62.93
2022-12-23T12:31:48.568Z,62.97
2022-12-23T12:34:51.155Z,63.16
2022-12-23T12:38:24.027Z,63.23
2022-12-23T12:41:07.327Z,63.27
2022-12-23T12:43:48.241Z,63.24
2022-12-23T12:46:22.266Z,63.14
2022-12-23T12:49:15.184Z,63.09
2022-12-23T12:51:43.126Z,63.41
2022-12-23T12:54:31.484Z,63.21
2022-12-23T12:56:59.878Z,63.55
2022-12-23T12:59:34.633Z,63.46
2022-12-23T13:03:08.365Z,63.42
2022-12-23T13:05:36.396Z,63.83
2022-12-23T13:08:10.456Z,63.69
2022-12-23T13:10:57.152Z,63.76
2022-12-23T13:13:40.962Z,63.86
2022-12-23T13:16:43.934Z,64.07
2022-12-23T13:19:55.879Z,64.14
2022-12-23T13:22:34.161Z,64.41
2022-12-23T13:25:29.360Z,64.70
2022-12-23T13:28:16.783Z,64.83
2022-12-23T13:31:12.422Z,64.82
2022-12-23T13:34:16.630Z,64.74
2022-12-23T13:37:26.909Z,64.87
2022-12-23T13:40:24.060Z,64.91
2022-12-23T13:42:59.534Z,64.97
2022-12-23T13:45:36.231Z,65.03
2022-12-23T13:48:52.435Z,64.87
2022-12-23T13:52:15.975Z,64.96
2022-12-23T13:55:08.627Z,64.95
2022-12-23T13:58:01.470Z,65.09
2022-12-23T14:00:34.656Z,65.16
2022-12-23T14:03:02.802Z,65.31
2022-12-23T14:05:41.098Z,65.25
2022-12-23T14:08:26.228Z,65.26
2022-12-23T14:11:00.442Z,65.33
2022-12-23T14:13:55.410Z,65.35
2022-12-23T14:16:34.969Z,65.55
2022-12-23T14:19:22.652Z,65.45
2022-12-23T14:22:28.462Z,65.46
2022-12-23T14:25:45.836Z,65.54
2022-12-23T14:28:25.583Z,65.76
2022-12-23T14:31:03.198Z,65.84
2022-12-23T14:33:38.115Z,65.63
2022-12-23T14:36:23.235Z,65.68
2022-12-23T14:39:31.791Z,65.72
2022-12-23T14:42:05.509Z,66.04
2022-12-23T14:44:37.304Z,65.86
2022-12-23T14:47:40.646Z,65.97
2022-12-23T14:50:36.376Z,65.90
2022-12-23T14:53:29.687Z,66.00
2022-12-23T14:56:17.169Z,66.00
2022-12-23T14:59:05.731Z,66.28
2022-12-23T15:02:00.515Z,66.24
2022-12-23T15:04:46.523Z,66.29
2022-12-23T15:07:32.289Z,66.34
2022-12-23T15:10:04.328Z,66.40
2022-12-23T15:12:38.586Z,66.37
2022-12-23T15:15:19.703Z,66.25
2022-12-23T15:17:48.484Z,66.31
2022-12-23T15:20:25.455Z,66.09
2022-12-23T15:22:53.212Z,66.23
2022-12-23T15:25:39.369Z,66.07
2022-12-23T15:28:21.410Z,66.05
2022-12-23T15:30:56.516Z,66.13
2022-12-23T15:36:32.262Z,66.14
2022-12-23T15:39:01.181Z,66.15
2022-12-23T15:41:29.940Z,66.07
2022-12-23T15:44:01.888Z,66.09
2022-12-23T15:46:32.203Z,66.04
2022-12-23T15:49:00.294Z,66.13
2022-12-23T15:52:05.876Z,65.79
2022-12-23T15:54:46.483Z,65.87
2022-12-23T15:57:21.955Z,65.95
2022-12-23T15:59:50.689Z,66.24
2022-12-23T16:05:29.321Z,65.93
2022-12-23T16:08:23.174Z,65.86
2022-12-23T16:11:20.338Z,65.89
2022-12-23T16:14:25.200Z,66.50
2022-12-23T16:16:53.802Z,66.44
2022-12-23T16:19:43.716Z,66.05
2022-12-23T16:22:14.559Z,66.15
2022-12-23T16:24:53.449Z,66.03
2022-12-23T16:27:37.505Z,65.88
2022-12-23T16:30:33.284Z,65.75
2022-12-23T16:33:37.503Z,65.75
2022-12-23T16:36:27.093Z,65.71
2022-12-23T16:39:07.066Z,65.67
2022-12-23T16:41:35.884Z,65.79
2022-12-23T16:44:04.354Z,65.86
2022-12-23T16:46:36.376Z,65.71
2022-12-23T16:49:08.499Z,65.71
2022-12-23T16:51:39.096Z,65.71
2022-12-23T16:54:10.198Z,65.65
2022-12-23T16:56:38.411Z,65.97
2022-12-23T16:59:07.312Z,65.97
2022-12-23T17:01:43.155Z,65.60
2022-12-23T17:04:11.436Z,65.60
2022-12-23T17:06:40.813Z,65.42
2022-12-23T17:09:11.243Z,65.48
2022-12-23T17:11:47.700Z,65.42
2022-12-23T17:14:17.359Z,65.30
2022-12-23T17:16:46.753Z,65.36
2022-12-23T17:19:15.305Z,65.33
2022-12-23T17:21:45.874Z,65.21
2022-12-23T17:24:25.527Z,65.11
2022-12-23T17:26:55.139Z,65.01
2022-12-23T17:29:43.146Z,65.28
2022-12-23T17:32:14.428Z,65.12
2022-12-23T17:34:42.193Z,65.19
2022-12-23T17:37:20.151Z,64.88
2022-12-23T17:39:48.292Z,64.96
2022-12-23T17:42:25.816Z,64.70
2022-12-23T17:44:54.115Z,64.77
2022-12-23T17:47:22.954Z,64.61
2022-12-23T17:49:52.240Z,64.61
2022-12-23T17:52:24.184Z,64.61
2022-12-23T17:54:52.193Z,64.73
2022-12-23T17:57:26.692Z,64.61
2022-12-23T17:59:56.796Z,64.69
2022-12-23T18:02:35.401Z,64.46
2022-12-23T18:05:14.943Z,64.44
2022-12-23T18:07:42.957Z,64.49
2022-12-23T18:10:14.988Z,64.18
2022-12-23T18:12:47.008Z,64.10
2022-12-23T18:15:32.676Z,64.05
2022-12-23T18:18:01.097Z,64.23
2022-12-23T18:20:29.330Z,64.20
2022-12-23T18:22:59.604Z,64.18
2022-12-23T18:25:27.905Z,64.08
2022-12-23T18:27:56.142Z,64.06
2022-12-23T18:30:24.341Z,64.01
2022-12-23T18:32:52.407Z,64.01
2022-12-23T18:35:25.874Z,63.73
2022-12-23T18:37:54.944Z,63.75
2022-12-23T18:40:27.925Z,63.67
2022-12-23T18:42:59.296Z,63.75
2022-12-23T18:45:36.426Z,63.69
2022-12-23T18:48:07.563Z,63.87
2022-12-23T18:50:38.741Z,63.75
2022-12-23T18:53:21.328Z,63.77
2022-12-23T18:55:52.517Z,63.82
2022-12-23T18:58:22.126Z,63.61
2022-12-23T19:00:52.784Z,63.70
2022-12-23T19:03:29.020Z,63.70
2022-12-23T19:06:06.487Z,63.65
2022-12-23T19:08:37.294Z,63.72
2022-12-23T19:11:19.043Z,63.56
2022-12-23T19:13:47.285Z,64.12
2022-12-23T19:16:20.888Z,64.00
2022-12-23T19:18:50.642Z,64.04
2022-12-23T19:21:18.956Z,64.03
2022-12-23T19:23:47.060Z,63.99
2022-12-23T19:26:15.869Z,63.89
2022-12-23T19:28:43.920Z,64.10
2022-12-23T19:31:15.140Z,64.00
2022-12-23T19:33:45.207Z,64.27
2022-12-23T19:36:25.002Z,64.22
2022-12-23T19:38:53.992Z,64.20
2022-12-23T19:41:22.147Z,64.17
2022-12-23T19:43:50.709Z,64.23
2022-12-23T19:46:19.441Z,64.13
2022-12-23T19:48:54.175Z,63.96
2022-12-23T19:51:22.516Z,63.96
2022-12-23T19:53:52.876Z,63.94
2022-12-23T19:56:21.287Z,63.86
2022-12-23T19:58:49.850Z,63.71
2022-12-23T20:01:22.739Z,63.63
2022-12-23T20:03:52.858Z,63.46
2022-12-23T20:06:29.047Z,63.30
2022-12-23T20:09:01.012Z,63.25
2022-12-23T20:11:32.660Z,63.15
2022-12-23T20:14:02.065Z,63.15
2022-12-23T20:16:30.913Z,63.19
2022-12-23T20:18:59.301Z,63.19
2022-12-23T20:21:28.498Z,63.15
2022-12-23T20:23:56.857Z,63.04
2022-12-23T20:26:26.848Z,63.01
2022-12-23T20:28:56.305Z,62.98
2022-12-23T20:31:28.628Z,62.81
2022-12-23T20:33:57.608Z,62.86
2022-12-23T20:36:32.007Z,62.55
2022-12-23T20:39:02.204Z,62.64
2022-12-23T20:41:31.787Z,62.69
2022-12-23T20:47:02.174Z,62.52
2022-12-23T20:49:37.216Z,62.50
2022-12-23T20:52:08.275Z,62.53
2022-12-23T20:54:36.598Z,62.40
2022-12-23T20:57:04.671Z,62.41
2022-12-23T20:59:33.270Z,62.43
2022-12-23T21:02:02.139Z,62.52
2022-12-23T21:04:30.443Z,62.43
2022-12-23T21:06:58.695Z,62.54
2022-12-23T21:09:27.170Z,62.52
2022-12-23T21:11:55.252Z,62.54
2022-12-23T21:14:23.356Z,63.26
2022-12-23T21:16:51.873Z,64.03
2022-12-23T21:19:24.019Z,64.85
2022-12-23T21:21:53.149Z,66.05
2022-12-23T21:24:21.525Z,66.52
2022-12-23T21:26:55.996Z,67.22
2022-12-23T21:29:26.143Z,67.41
2022-12-23T21:31:55.430Z,67.63
2022-12-23T21:34:24.083Z,67.91
2022-12-23T21:36:52.559Z,68.07
2022-12-23T21:39:20.808Z,68.42
2022-12-23T21:41:51.545Z,68.45
2022-12-23T21:44:19.813Z,68.46
2022-12-23T21:46:51.110Z,68.46
2022-12-23T21:49:20.220Z,68.82
2022-12-23T21:51:48.271Z,69.16
2022-12-23T21:54:16.168Z,68.73
2022-12-23T21:56:44.385Z,68.99
2022-12-23T21:59:15.037Z,68.92
2022-12-23T22:01:43.797Z,69.03
2022-12-23T22:04:12.735Z,69.42
2022-12-23T22:06:44.042Z,69.34
2022-12-23T22:09:16.002Z,69.67
2022-12-23T22:11:44.486Z,69.75
2022-12-23T22:14:16.452Z,69.98
2022-12-23T22:16:44.497Z,70.14
2022-12-23T22:19:13.181Z,70.30
2022-12-23T22:21:42.508Z,70.16
2022-12-23T22:24:11.377Z,70.26
2022-12-23T22:26:40.066Z,70.15
2022-12-23T22:29:08.399Z,70.02
2022-12-23T22:31:48.371Z,69.99
2022-12-23T22:34:20.888Z,69.78
2022-12-23T22:36:49.996Z,69.92
2022-12-23T22:39:21.656Z,69.73
2022-12-23T22:41:51.711Z,69.63
2022-12-23T22:44:21.212Z,69.64
2022-12-23T22:46:50.003Z,69.81
2022-12-23T22:49:18.758Z,69.83
2022-12-23T22:51:47.226Z,69.78
2022-12-23T22:54:15.103Z,69.75
2022-12-23T22:56:44.187Z,69.86
2022-12-23T22:59:21.956Z,69.47
2022-12-23T23:01:52.153Z,69.88
2022-12-23T23:04:20.631Z,69.87
2022-12-23T23:06:49.368Z,70.01
2022-12-23T23:09:20.577Z,70.02
2022-12-23T23:11:50.396Z,70.27
2022-12-23T23:14:18.725Z,70.06
2022-12-23T23:16:47.136Z,70.12
2022-12-23T23:19:16.527Z,70.16
2022-12-23T23:21:44.600Z,70.16
2022-12-23T23:24:12.499Z,70.02
2022-12-23T23:26:40.581Z,69.94
2022-12-23T23:29:08.539Z,70.10
2022-12-23T23:31:44.445Z,69.89
2022-12-23T23:34:13.328Z,69.92
2022-12-23T23:36:42.123Z,69.89
2022-12-23T23:39:12.777Z,69.65
2022-12-23T23:41:41.974Z,69.60
2022-12-23T23:44:11.212Z,69.49
2022-12-23T23:46:39.913Z,69.27
2022-12-23T23:49:07.925Z,69.35
2022-12-23T23:51:35.953Z,69.31
2022-12-23T23:54:04.214Z,69.19
2022-12-23T23:56:38.237Z,69.20
2022-12-23T23:59:09.051Z,69.23
